sensor_id;sensor_type;location;lat;lon;timestamp;pressure;altitude;pressure_sealevel;temperature
37414;BMP280;23279;46.472;30.760;2023-05-27T00:00:06;75361.28;;;-146.33
37414;BMP280;23279;46.472;30.760;2023-05-27T00:02:32;75351.13;;;-146.33
37414;BMP280;23279;46.472;30.760;2023-05-27T00:04:57;75412.09;;;-146.33
37414;BMP280;23279;46.472;30.760;2023-05-27T00:07:23;75432.44;;;-146.33
37414;BMP280;23279;46.472;30.760;2023-05-27T00:09:48;75395.84;;;-146.33
37414;BMP280;23279;46.472;30.760;2023-05-27T00:12:14;75330.78;;;-146.33
37414;BMP280;23279;46.472;30.760;2023-05-27T00:14:40;75326.72;;;-146.33
37414;BMP280;23279;46.472;30.760;2023-05-27T00:17:05;75426.34;;;-146.33
37414;BMP280;23279;46.472;30.760;2023-05-27T00:19:31;75424.31;;;-146.33
37414;BMP280;23279;46.472;30.760;2023-05-27T00:21:57;75389.75;;;-146.33
37414;BMP280;23279;46.472;30.760;2023-05-27T00:24:22;75430.41;;;-146.33
37414;BMP280;23279;46.472;30.760;2023-05-27T00:26:49;75452.75;;;-146.33
37414;BMP280;23279;46.472;30.760;2023-05-27T00:29:16;75403.97;;;-146.33
37414;BMP280;23279;46.472;30.760;2023-05-27T00:31:41;75310.44;;;-146.33
37414;BMP280;23279;46.472;30.760;2023-05-27T00:34:07;75269.78;;;-146.33
37414;BMP280;23279;46.472;30.760;2023-05-27T00:36:32;75202.72;;;-146.33
37414;BMP280;23279;46.472;30.760;2023-05-27T00:38:58;75184.41;;;-146.33
37414;BMP280;23279;46.472;30.760;2023-05-27T00:41:24;75184.41;;;-146.33
37414;BMP280;23279;46.472;30.760;2023-05-27T00:43:49;75184.41;;;-146.33
37414;BMP280;23279;46.472;30.760;2023-05-27T00:46:15;75168.16;;;-146.33
37414;BMP280;23279;46.472;30.760;2023-05-27T00:48:41;75178.31;;;-146.33
37414;BMP280;23279;46.472;30.760;2023-05-27T00:51:07;75145.78;;;-146.33
37414;BMP280;23279;46.472;30.760;2023-05-27T00:53:40;75164.06;;;-146.33
37414;BMP280;23279;46.472;30.760;2023-05-27T00:56:07;75178.31;;;-146.33
37414;BMP280;23279;46.472;30.760;2023-05-27T00:58:34;75155.94;;;-146.33
37414;BMP280;23279;46.472;30.760;2023-05-27T01:00:59;75176.28;;;-146.33
37414;BMP280;23279;46.472;30.760;2023-05-27T01:03:25;75176.28;;;-146.33
37414;BMP280;23279;46.472;30.760;2023-05-27T01:05:54;75184.41;;;-146.33
37414;BMP280;23279;46.472;30.760;2023-05-27T01:08:37;75190.50;;;-146.33
37414;BMP280;23279;46.472;30.760;2023-05-27T01:11:10;75190.50;;;-146.33
37414;BMP280;23279;46.472;30.760;2023-05-27T01:13:40;75166.13;;;-146.33
37414;BMP280;23279;46.472;30.760;2023-05-27T01:16:11;75172.22;;;-146.33
37414;BMP280;23279;46.472;30.760;2023-05-27T01:18:39;75155.94;;;-146.33
37414;BMP280;23279;46.472;30.760;2023-05-27T01:21:07;75141.72;;;-146.33
37414;BMP280;23279;46.472;30.760;2023-05-27T01:23:35;75141.72;;;-146.33
37414;BMP280;23279;46.472;30.760;2023-05-27T01:26:04;75123.44;;;-146.33
37414;BMP280;23279;46.472;30.760;2023-05-27T01:28:30;75113.25;;;-146.33
37414;BMP280;23279;46.472;30.760;2023-05-27T01:31:01;75078.69;;;-146.33
37414;BMP280;23279;46.472;30.760;2023-05-27T01:33:33;75070.56;;;-146.33
37414;BMP280;23279;46.472;30.760;2023-05-27T01:36:07;75044.13;;;-146.33
37414;BMP280;23279;46.472;30.760;2023-05-27T01:38:35;75029.91;;;-146.33
37414;BMP280;23279;46.472;30.760;2023-05-27T01:41:02;74993.31;;;-146.33
37414;BMP280;23279;46.472;30.760;2023-05-27T01:43:27;74993.31;;;-146.33
37414;BMP280;23279;46.472;30.760;2023-05-27T01:45:53;75003.50;;;-146.33
37414;BMP280;23279;46.472;30.760;2023-05-27T01:48:19;75001.44;;;-146.33
37414;BMP280;23279;46.472;30.760;2023-05-27T01:50:45;74981.13;;;-146.33
37414;BMP280;23279;46.472;30.760;2023-05-27T01:53:10;74970.97;;;-146.33
37414;BMP280;23279;46.472;30.760;2023-05-27T01:55:37;74975.03;;;-146.33
37414;BMP280;23279;46.472;30.760;2023-05-27T01:58:03;74979.09;;;-146.33
37414;BMP280;23279;46.472;30.760;2023-05-27T02:00:28;74973.00;;;-146.33
37414;BMP280;23279;46.472;30.760;2023-05-27T02:02:53;74968.94;;;-146.33
37414;BMP280;23279;46.472;30.760;2023-05-27T02:05:19;74962.84;;;-146.33
37414;BMP280;23279;46.472;30.760;2023-05-27T02:07:44;74973.00;;;-146.33
37414;BMP280;23279;46.472;30.760;2023-05-27T02:10:10;74964.88;;;-146.33
37414;BMP280;23279;46.472;30.760;2023-05-27T02:12:35;74985.19;;;-146.33
37414;BMP280;23279;46.472;30.760;2023-05-27T02:15:01;75013.66;;;-146.33
37414;BMP280;23279;46.472;30.760;2023-05-27T02:17:26;75007.56;;;-146.33
37414;BMP280;23279;46.472;30.760;2023-05-27T02:19:52;75003.50;;;-146.33
37414;BMP280;23279;46.472;30.760;2023-05-27T02:22:18;74995.34;;;-146.33
37414;BMP280;23279;46.472;30.760;2023-05-27T02:24:43;74979.09;;;-146.33
37414;BMP280;23279;46.472;30.760;2023-05-27T02:27:09;74985.19;;;-146.33
37414;BMP280;23279;46.472;30.760;2023-05-27T02:29:34;75001.44;;;-146.33
37414;BMP280;23279;46.472;30.760;2023-05-27T02:32:00;74973.00;;;-146.33
37414;BMP280;23279;46.472;30.760;2023-05-27T02:34:25;74983.16;;;-146.33
37414;BMP280;23279;46.472;30.760;2023-05-27T02:36:51;74987.22;;;-146.33
37414;BMP280;23279;46.472;30.760;2023-05-27T02:39:17;75013.66;;;-146.33
37414;BMP280;23279;46.472;30.760;2023-05-27T02:41:42;74981.13;;;-146.33
37414;BMP280;23279;46.472;30.760;2023-05-27T02:44:07;74979.09;;;-146.33
37414;BMP280;23279;46.472;30.760;2023-05-27T02:46:33;74989.25;;;-146.33
37414;BMP280;23279;46.472;30.760;2023-05-27T02:48:58;74989.25;;;-146.33
37414;BMP280;23279;46.472;30.760;2023-05-27T02:51:24;74981.13;;;-146.33
37414;BMP280;23279;46.472;30.760;2023-05-27T02:53:50;74966.91;;;-146.33
37414;BMP280;23279;46.472;30.760;2023-05-27T02:56:15;74985.19;;;-146.33
37414;BMP280;23279;46.472;30.760;2023-05-27T02:58:41;74975.03;;;-146.33
37414;BMP280;23279;46.472;30.760;2023-05-27T03:01:06;75001.44;;;-146.33
37414;BMP280;23279;46.472;30.760;2023-05-27T03:03:32;74987.22;;;-146.33
37414;BMP280;23279;46.472;30.760;2023-05-27T03:05:57;74987.22;;;-146.33
37414;BMP280;23279;46.472;30.760;2023-05-27T03:08:22;74993.31;;;-146.33
37414;BMP280;23279;46.472;30.760;2023-05-27T03:10:48;74997.38;;;-146.33
37414;BMP280;23279;46.472;30.760;2023-05-27T03:13:13;75009.59;;;-146.33
37414;BMP280;23279;46.472;30.760;2023-05-27T03:15:39;75023.81;;;-146.33
37414;BMP280;23279;46.472;30.760;2023-05-27T03:18:04;75029.91;;;-146.33
37414;BMP280;23279;46.472;30.760;2023-05-27T03:20:30;75033.97;;;-146.33
37414;BMP280;23279;46.472;30.760;2023-05-27T03:22:55;75013.66;;;-146.33
37414;BMP280;23279;46.472;30.760;2023-05-27T03:25:21;75005.53;;;-146.33
37414;BMP280;23279;46.472;30.760;2023-05-27T03:27:47;75015.69;;;-146.33
37414;BMP280;23279;46.472;30.760;2023-05-27T03:30:12;75005.53;;;-146.33
37414;BMP280;23279;46.472;30.760;2023-05-27T03:32:37;75013.66;;;-146.33
37414;BMP280;23279;46.472;30.760;2023-05-27T03:35:03;75023.81;;;-146.33
37414;BMP280;23279;46.472;30.760;2023-05-27T03:37:29;75064.47;;;-146.33
37414;BMP280;23279;46.472;30.760;2023-05-27T03:39:54;75078.69;;;-146.33
37414;BMP280;23279;46.472;30.760;2023-05-27T03:42:20;75115.28;;;-146.33
37414;BMP280;23279;46.472;30.760;2023-05-27T03:44:45;75135.63;;;-146.33
37414;BMP280;23279;46.472;30.760;2023-05-27T03:47:11;75160.00;;;-146.33
37414;BMP280;23279;46.472;30.760;2023-05-27T03:49:36;75188.47;;;-146.33
37414;BMP280;23279;46.472;30.760;2023-05-27T03:52:02;75229.13;;;-146.33
37414;BMP280;23279;46.472;30.760;2023-05-27T03:54:27;75225.06;;;-146.33
37414;BMP280;23279;46.472;30.760;2023-05-27T03:56:53;75229.13;;;-146.33
37414;BMP280;23279;46.472;30.760;2023-05-27T03:59:18;75247.44;;;-146.33
37414;BMP280;23279;46.472;30.760;2023-05-27T04:01:44;75241.31;;;-146.33
37414;BMP280;23279;46.472;30.760;2023-05-27T04:04:10;75277.94;;;-146.33
37414;BMP280;23279;46.472;30.760;2023-05-27T04:06:35;75310.44;;;-146.33
37414;BMP280;23279;46.472;30.760;2023-05-27T04:09:01;75375.50;;;-146.33
37414;BMP280;23279;46.472;30.760;2023-05-27T04:11:29;75375.50;;;-146.33
37414;BMP280;23279;46.472;30.760;2023-05-27T04:13:55;75406.00;;;-146.33
37414;BMP280;23279;46.472;30.760;2023-05-27T04:16:21;75406.00;;;-146.33
37414;BMP280;23279;46.472;30.760;2023-05-27T04:18:46;75391.78;;;-146.33
37414;BMP280;23279;46.472;30.760;2023-05-27T04:21:14;75379.56;;;-146.33
37414;BMP280;23279;46.472;30.760;2023-05-27T04:23:40;75406.00;;;-146.33
37414;BMP280;23279;46.472;30.760;2023-05-27T04:26:05;75424.31;;;-146.33
37414;BMP280;23279;46.472;30.760;2023-05-27T04:28:31;75467.00;;;-146.33
37414;BMP280;23279;46.472;30.760;2023-05-27T04:30:57;75438.53;;;-146.33
37414;BMP280;23279;46.472;30.760;2023-05-27T04:33:22;75440.56;;;-146.33
37414;BMP280;23279;46.472;30.760;2023-05-27T04:35:48;75428.38;;;-146.33
37414;BMP280;23279;46.472;30.760;2023-05-27T04:38:13;75448.69;;;-146.33
37414;BMP280;23279;46.472;30.760;2023-05-27T04:40:42;75424.31;;;-146.33
37414;BMP280;23279;46.472;30.760;2023-05-27T04:43:10;75424.31;;;-146.33
37414;BMP280;23279;46.472;30.760;2023-05-27T04:45:37;75403.97;;;-146.33
37414;BMP280;23279;46.472;30.760;2023-05-27T04:48:03;75424.31;;;-146.33
37414;BMP280;23279;46.472;30.760;2023-05-27T04:50:28;75403.97;;;-146.33
37414;BMP280;23279;46.472;30.760;2023-05-27T04:52:54;75444.63;;;-146.33
37414;BMP280;23279;46.472;30.760;2023-05-27T04:55:19;75454.78;;;-146.33
37414;BMP280;23279;46.472;30.760;2023-05-27T04:57:45;75487.31;;;-146.33
37414;BMP280;23279;46.472;30.760;2023-05-27T05:00:12;75540.19;;;-146.33
37414;BMP280;23279;46.472;30.760;2023-05-27T05:02:37;75635.75;;;-146.33
37414;BMP280;23279;46.472;30.760;2023-05-27T05:05:06;75647.94;;;-146.33
37414;BMP280;23279;46.472;30.760;2023-05-27T05:07:32;75652.00;;;-146.33
37414;BMP280;23279;46.472;30.760;2023-05-27T05:10:04;75623.56;;;-146.33
37414;BMP280;23279;46.472;30.760;2023-05-27T05:12:30;75603.22;;;-146.33
37414;BMP280;23279;46.472;30.760;2023-05-27T05:14:56;75613.38;;;-146.33
37414;BMP280;23279;46.472;30.760;2023-05-27T05:17:21;75595.09;;;-146.33
37414;BMP280;23279;46.472;30.760;2023-05-27T05:19:50;75574.75;;;-146.33
37414;BMP280;23279;46.472;30.760;2023-05-27T05:22:16;75582.88;;;-146.33
37414;BMP280;23279;46.472;30.760;2023-05-27T05:24:47;75574.75;;;-146.33
37414;BMP280;23279;46.472;30.760;2023-05-27T05:27:12;75572.72;;;-146.33
37414;BMP280;23279;46.472;30.760;2023-05-27T05:29:38;75550.34;;;-146.33
37414;BMP280;23279;46.472;30.760;2023-05-27T05:32:04;75574.75;;;-146.33
37414;BMP280;23279;46.472;30.760;2023-05-27T05:34:30;75550.34;;;-146.33
37414;BMP280;23279;46.472;30.760;2023-05-27T05:36:55;75588.97;;;-146.33
37414;BMP280;23279;46.472;30.760;2023-05-27T05:39:21;75623.56;;;-146.33
37414;BMP280;23279;46.472;30.760;2023-05-27T05:41:46;75664.22;;;-146.33
37414;BMP280;23279;46.472;30.760;2023-05-27T05:44:12;75713.00;;;-146.33
37414;BMP280;23279;46.472;30.760;2023-05-27T05:46:37;75774.00;;;-146.33
37414;BMP280;23279;46.472;30.760;2023-05-27T05:49:04;75824.84;;;-146.33
37414;BMP280;23279;46.472;30.760;2023-05-27T05:51:29;75867.53;;;-146.33
37414;BMP280;23279;46.472;30.760;2023-05-27T05:53:59;75891.94;;;-146.33
37414;BMP280;23279;46.472;30.760;2023-05-27T05:56:25;75948.88;;;-146.33
37414;BMP280;23279;46.472;30.760;2023-05-27T05:58:53;75993.63;;;-146.33
37414;BMP280;23279;46.472;30.760;2023-05-27T06:01:19;76050.56;;;-146.33
37414;BMP280;23279;46.472;30.760;2023-05-27T06:03:44;76066.81;;;-146.33
37414;BMP280;23279;46.472;30.760;2023-05-27T06:06:10;76135.97;;;-146.33
37414;BMP280;23279;46.472;30.760;2023-05-27T06:08:35;76135.97;;;-146.33
37414;BMP280;23279;46.472;30.760;2023-05-27T06:11:01;76184.75;;;-146.33
37414;BMP280;23279;46.472;30.760;2023-05-27T06:13:26;76205.09;;;-146.33
37414;BMP280;23279;46.472;30.760;2023-05-27T06:15:52;76270.19;;;-146.33
37414;BMP280;23279;46.472;30.760;2023-05-27T06:18:17;76270.19;;;-146.33
37414;BMP280;23279;46.472;30.760;2023-05-27T06:20:43;76221.38;;;-146.33
37414;BMP280;23279;46.472;30.760;2023-05-27T06:23:08;76172.56;;;-146.33
37414;BMP280;23279;46.472;30.760;2023-05-27T06:25:34;76164.44;;;-146.33
37414;BMP280;23279;46.472;30.760;2023-05-27T06:27:59;76184.75;;;-146.33
37414;BMP280;23279;46.472;30.760;2023-05-27T06:30:25;76243.75;;;-146.33
37414;BMP280;23279;46.472;30.760;2023-05-27T06:32:51;76260.00;;;-146.33
37414;BMP280;23279;46.472;30.760;2023-05-27T06:35:16;76310.84;;;-146.33
37414;BMP280;23279;46.472;30.760;2023-05-27T06:37:42;76400.34;;;-146.33
37414;BMP280;23279;46.472;30.760;2023-05-27T06:40:07;76359.66;;;-146.33
37414;BMP280;23279;46.472;30.760;2023-05-27T06:42:33;76373.91;;;-146.33
37414;BMP280;23279;46.472;30.760;2023-05-27T06:44:58;76471.53;;;-146.33
37414;BMP280;23279;46.472;30.760;2023-05-27T06:47:24;76453.22;;;-146.33
37414;BMP280;23279;46.472;30.760;2023-05-27T06:49:49;76457.28;;;-146.33
37414;BMP280;23279;46.472;30.760;2023-05-27T06:52:14;76518.28;;;-146.33
37414;BMP280;23279;46.472;30.760;2023-05-27T06:54:40;76573.22;;;-146.33
37414;BMP280;23279;46.472;30.760;2023-05-27T06:57:05;76652.53;;;-146.33
37414;BMP280;23279;46.472;30.760;2023-05-27T06:59:31;76727.78;;;-146.33
37414;BMP280;23279;46.472;30.760;2023-05-27T07:01:56;76746.09;;;-146.33
37414;BMP280;23279;46.472;30.760;2023-05-27T07:04:22;76790.84;;;-146.33
37414;BMP280;23279;46.472;30.760;2023-05-27T07:06:47;76801.03;;;-146.33
37414;BMP280;23279;46.472;30.760;2023-05-27T07:09:13;76792.88;;;-146.33
37414;BMP280;23279;46.472;30.760;2023-05-27T07:11:39;76778.63;;;-146.33
37414;BMP280;23279;46.472;30.760;2023-05-27T07:14:05;76809.16;;;-146.33
37414;BMP280;23279;46.472;30.760;2023-05-27T07:16:31;76805.09;;;-146.33
37414;BMP280;23279;46.472;30.760;2023-05-27T07:18:56;76855.94;;;-146.33
37414;BMP280;23279;46.472;30.760;2023-05-27T07:21:22;76851.88;;;-146.33
37414;BMP280;23279;46.472;30.760;2023-05-27T07:23:47;76886.44;;;-146.33
37414;BMP280;23279;46.472;30.760;2023-05-27T07:26:12;76904.75;;;-146.33
37414;BMP280;23279;46.472;30.760;2023-05-27T07:28:38;76900.69;;;-146.33
37414;BMP280;23279;46.472;30.760;2023-05-27T07:31:04;76914.94;;;-146.33
37414;BMP280;23279;46.472;30.760;2023-05-27T07:33:30;76914.94;;;-146.33
37414;BMP280;23279;46.472;30.760;2023-05-27T07:35:55;76910.84;;;-146.33
37414;BMP280;23279;46.472;30.760;2023-05-27T07:38:21;76959.69;;;-146.33
37414;BMP280;23279;46.472;30.760;2023-05-27T07:40:46;76977.97;;;-146.33
37414;BMP280;23279;46.472;30.760;2023-05-27T07:43:12;77006.47;;;-146.33
37414;BMP280;23279;46.472;30.760;2023-05-27T07:45:37;77030.88;;;-146.33
37414;BMP280;23279;46.472;30.760;2023-05-27T07:48:02;77045.13;;;-146.33
37414;BMP280;23279;46.472;30.760;2023-05-27T07:50:28;77026.81;;;-146.33
37414;BMP280;23279;46.472;30.760;2023-05-27T07:52:53;77047.16;;;-146.33
37414;BMP280;23279;46.472;30.760;2023-05-27T07:55:19;77057.31;;;-146.33
37414;BMP280;23279;46.472;30.760;2023-05-27T07:57:44;77057.31;;;-146.33
37414;BMP280;23279;46.472;30.760;2023-05-27T08:00:10;77065.44;;;-146.33
37414;BMP280;23279;46.472;30.760;2023-05-27T08:02:36;77071.56;;;-146.33
37414;BMP280;23279;46.472;30.760;2023-05-27T08:05:02;77063.41;;;-146.33
37414;BMP280;23279;46.472;30.760;2023-05-27T08:07:29;77053.25;;;-146.33
37414;BMP280;23279;46.472;30.760;2023-05-27T08:09:54;77039.00;;;-146.33
37414;BMP280;23279;46.472;30.760;2023-05-27T08:12:20;77063.41;;;-146.33
37414;BMP280;23279;46.472;30.760;2023-05-27T08:14:45;77032.91;;;-146.33
37414;BMP280;23279;46.472;30.760;2023-05-27T08:17:11;77047.16;;;-146.33
37414;BMP280;23279;46.472;30.760;2023-05-27T08:19:36;77057.31;;;-146.33
37414;BMP280;23279;46.472;30.760;2023-05-27T08:22:02;77026.81;;;-146.33
37414;BMP280;23279;46.472;30.760;2023-05-27T08:24:28;77006.47;;;-146.33
37414;BMP280;23279;46.472;30.760;2023-05-27T08:26:56;77022.75;;;-146.33
37414;BMP280;23279;46.472;30.760;2023-05-27T08:29:21;77053.25;;;-146.33
37414;BMP280;23279;46.472;30.760;2023-05-27T08:31:46;77075.63;;;-146.33
37414;BMP280;23279;46.472;30.760;2023-05-27T08:34:12;77100.03;;;-146.33
37414;BMP280;23279;46.472;30.760;2023-05-27T08:36:37;77128.50;;;-146.33
37414;BMP280;23279;46.472;30.760;2023-05-27T08:39:03;77116.31;;;-146.33
37414;BMP280;23279;46.472;30.760;2023-05-27T08:41:29;77138.69;;;-146.33
37414;BMP280;23279;46.472;30.760;2023-05-27T08:43:56;77173.28;;;-146.33
37414;BMP280;23279;46.472;30.760;2023-05-27T08:46:22;77173.28;;;-146.33
37414;BMP280;23279;46.472;30.760;2023-05-27T08:48:47;77179.38;;;-146.33
37414;BMP280;23279;46.472;30.760;2023-05-27T08:51:16;77152.94;;;-146.33
37414;BMP280;23279;46.472;30.760;2023-05-27T08:53:44;77091.91;;;-146.33
37414;BMP280;23279;46.472;30.760;2023-05-27T08:56:11;77126.47;;;-146.33
37414;BMP280;23279;46.472;30.760;2023-05-27T08:58:38;77128.50;;;-146.33
37414;BMP280;23279;46.472;30.760;2023-05-27T09:01:04;77132.59;;;-146.33
37414;BMP280;23279;46.472;30.760;2023-05-27T09:03:30;77124.44;;;-146.33
37414;BMP280;23279;46.472;30.760;2023-05-27T09:05:55;76988.16;;;-146.33
37414;BMP280;23279;46.472;30.760;2023-05-27T09:08:21;76894.59;;;-146.33
37414;BMP280;23279;46.472;30.760;2023-05-27T09:10:46;76876.28;;;-146.33
37414;BMP280;23279;46.472;30.760;2023-05-27T09:13:12;76833.56;;;-146.33
37414;BMP280;23279;46.472;30.760;2023-05-27T09:15:37;76853.91;;;-146.33
37414;BMP280;23279;46.472;30.760;2023-05-27T09:18:04;76892.53;;;-146.33
37414;BMP280;23279;46.472;30.760;2023-05-27T09:20:30;76945.44;;;-146.33
37414;BMP280;23279;46.472;30.760;2023-05-27T09:23:00;76992.22;;;-146.33
37414;BMP280;23279;46.472;30.760;2023-05-27T09:25:27;76973.91;;;-146.33
37414;BMP280;23279;46.472;30.760;2023-05-27T09:27:53;76947.47;;;-146.33
37414;BMP280;23279;46.472;30.760;2023-05-27T09:30:20;76953.56;;;-146.33
37414;BMP280;23279;46.472;30.760;2023-05-27T09:32:45;76969.84;;;-146.33
37414;BMP280;23279;46.472;30.760;2023-05-27T09:35:12;76933.22;;;-146.33
37414;BMP280;23279;46.472;30.760;2023-05-27T09:37:37;76947.47;;;-146.33
37414;BMP280;23279;46.472;30.760;2023-05-27T09:40:06;77059.34;;;-146.33
37414;BMP280;23279;46.472;30.760;2023-05-27T09:42:44;77043.06;;;-146.33
37414;BMP280;23279;46.472;30.760;2023-05-27T09:45:13;77055.28;;;-146.33
37414;BMP280;23279;46.472;30.760;2023-05-27T09:47:46;77020.69;;;-146.33
37414;BMP280;23279;46.472;30.760;2023-05-27T09:50:12;77020.69;;;-146.33
37414;BMP280;23279;46.472;30.760;2023-05-27T09:52:42;77034.94;;;-146.33
37414;BMP280;23279;46.472;30.760;2023-05-27T09:55:09;76996.28;;;-146.33
37414;BMP280;23279;46.472;30.760;2023-05-27T09:57:35;76973.91;;;-146.33
37414;BMP280;23279;46.472;30.760;2023-05-27T10:00:09;76957.66;;;-146.33
37414;BMP280;23279;46.472;30.760;2023-05-27T10:02:42;76975.94;;;-146.33
37414;BMP280;23279;46.472;30.760;2023-05-27T10:05:08;76973.91;;;-146.33
37414;BMP280;23279;46.472;30.760;2023-05-27T10:07:38;76961.72;;;-146.33
37414;BMP280;23279;46.472;30.760;2023-05-27T10:10:08;76982.06;;;-146.33
37414;BMP280;23279;46.472;30.760;2023-05-27T10:12:39;76994.25;;;-146.33
37414;BMP280;23279;46.472;30.760;2023-05-27T10:15:05;76980.03;;;-146.33
37414;BMP280;23279;46.472;30.760;2023-05-27T10:17:47;76961.72;;;-146.33
37414;BMP280;23279;46.472;30.760;2023-05-27T10:20:24;76935.28;;;-146.33
37414;BMP280;23279;46.472;30.760;2023-05-27T10:22:49;76973.91;;;-146.33
37414;BMP280;23279;46.472;30.760;2023-05-27T10:25:15;76969.84;;;-146.33
37414;BMP280;23279;46.472;30.760;2023-05-27T10:27:48;76977.97;;;-146.33
37414;BMP280;23279;46.472;30.760;2023-05-27T10:30:14;77012.56;;;-146.33
37414;BMP280;23279;46.472;30.760;2023-05-27T10:32:49;76977.97;;;-146.33
37414;BMP280;23279;46.472;30.760;2023-05-27T10:35:16;77006.47;;;-146.33
37414;BMP280;23279;46.472;30.760;2023-05-27T10:37:43;77047.16;;;-146.33
37414;BMP280;23279;46.472;30.760;2023-05-27T10:40:09;77010.53;;;-146.33
37414;BMP280;23279;46.472;30.760;2023-05-27T10:42:35;76959.69;;;-146.33
37414;BMP280;23279;46.472;30.760;2023-05-27T10:45:09;76919.00;;;-146.33
37414;BMP280;23279;46.472;30.760;2023-05-27T10:47:36;76910.84;;;-146.33
37414;BMP280;23279;46.472;30.760;2023-05-27T10:50:14;76896.63;;;-146.33
37414;BMP280;23279;46.472;30.760;2023-05-27T10:52:41;76896.63;;;-146.33
37414;BMP280;23279;46.472;30.760;2023-05-27T10:55:07;76884.41;;;-146.33
37414;BMP280;23279;46.472;30.760;2023-05-27T10:57:33;76876.28;;;-146.33
37414;BMP280;23279;46.472;30.760;2023-05-27T11:00:05;76862.03;;;-146.33
37414;BMP280;23279;46.472;30.760;2023-05-27T11:02:36;76839.66;;;-146.33
37414;BMP280;23279;46.472;30.760;2023-05-27T11:05:08;76827.47;;;-146.33
37414;BMP280;23279;46.472;30.760;2023-05-27T11:07:36;76847.81;;;-146.33
37414;BMP280;23279;46.472;30.760;2023-05-27T11:10:02;76825.44;;;-146.33
37414;BMP280;23279;46.472;30.760;2023-05-27T11:12:27;76843.72;;;-146.33
37414;BMP280;23279;46.472;30.760;2023-05-27T11:14:54;76866.09;;;-146.33
37414;BMP280;23279;46.472;30.760;2023-05-27T11:17:21;76937.31;;;-146.33
37414;BMP280;23279;46.472;30.760;2023-05-27T11:19:47;76982.06;;;-146.33
37414;BMP280;23279;46.472;30.760;2023-05-27T11:22:16;77022.75;;;-146.33
37414;BMP280;23279;46.472;30.760;2023-05-27T11:24:42;77051.22;;;-146.33
37414;BMP280;23279;46.472;30.760;2023-05-27T11:27:12;77089.88;;;-146.33
37414;BMP280;23279;46.472;30.760;2023-05-27T11:29:38;77138.69;;;-146.33
37414;BMP280;23279;46.472;30.760;2023-05-27T11:32:05;77165.13;;;-146.33
37414;BMP280;23279;46.472;30.760;2023-05-27T11:34:33;77209.88;;;-146.33
37414;BMP280;23279;46.472;30.760;2023-05-27T11:37:03;77222.09;;;-146.33
37414;BMP280;23279;46.472;30.760;2023-05-27T11:39:29;77209.88;;;-146.33
37414;BMP280;23279;46.472;30.760;2023-05-27T11:41:55;77197.69;;;-146.33
37414;BMP280;23279;46.472;30.760;2023-05-27T11:44:22;77152.94;;;-146.33
37414;BMP280;23279;46.472;30.760;2023-05-27T11:46:49;77140.72;;;-146.33
37414;BMP280;23279;46.472;30.760;2023-05-27T11:49:16;77108.19;;;-146.33
37414;BMP280;23279;46.472;30.760;2023-05-27T11:51:49;77100.03;;;-146.33
37414;BMP280;23279;46.472;30.760;2023-05-27T11:54:19;77095.97;;;-146.33
37414;BMP280;23279;46.472;30.760;2023-05-27T11:56:46;77063.41;;;-146.33
37414;BMP280;23279;46.472;30.760;2023-05-27T11:59:11;77071.56;;;-146.33
37414;BMP280;23279;46.472;30.760;2023-05-27T12:01:37;77089.88;;;-146.33
37414;BMP280;23279;46.472;30.760;2023-05-27T12:04:02;77091.91;;;-146.33
37414;BMP280;23279;46.472;30.760;2023-05-27T12:06:28;77095.97;;;-146.33
37414;BMP280;23279;46.472;30.760;2023-05-27T12:08:54;77148.84;;;-146.33
37414;BMP280;23279;46.472;30.760;2023-05-27T12:11:20;77136.66;;;-146.33
37414;BMP280;23279;46.472;30.760;2023-05-27T12:13:45;77148.84;;;-146.33
37414;BMP280;23279;46.472;30.760;2023-05-27T12:16:10;77161.06;;;-146.33
37414;BMP280;23279;46.472;30.760;2023-05-27T12:18:36;77207.84;;;-146.33
37414;BMP280;23279;46.472;30.760;2023-05-27T12:21:02;77209.88;;;-146.33
37414;BMP280;23279;46.472;30.760;2023-05-27T12:23:28;77201.75;;;-146.33
37414;BMP280;23279;46.472;30.760;2023-05-27T12:25:53;77195.66;;;-146.33
37414;BMP280;23279;46.472;30.760;2023-05-27T12:28:18;77226.16;;;-146.33
37414;BMP280;23279;46.472;30.760;2023-05-27T12:30:44;77230.22;;;-146.33
37414;BMP280;23279;46.472;30.760;2023-05-27T12:33:11;77209.88;;;-146.33
37414;BMP280;23279;46.472;30.760;2023-05-27T12:35:36;77205.81;;;-146.33
37414;BMP280;23279;46.472;30.760;2023-05-27T12:38:02;77222.09;;;-146.33
37414;BMP280;23279;46.472;30.760;2023-05-27T12:40:27;77222.09;;;-146.33
37414;BMP280;23279;46.472;30.760;2023-05-27T12:42:53;77211.94;;;-146.33
37414;BMP280;23279;46.472;30.760;2023-05-27T12:45:18;77224.13;;;-146.33
37414;BMP280;23279;46.472;30.760;2023-05-27T12:47:47;77226.16;;;-146.33
37414;BMP280;23279;46.472;30.760;2023-05-27T12:50:13;77236.34;;;-146.33
37414;BMP280;23279;46.472;30.760;2023-05-27T12:52:38;77238.38;;;-146.33
37414;BMP280;23279;46.472;30.760;2023-05-27T12:55:08;77238.38;;;-146.33
37414;BMP280;23279;46.472;30.760;2023-05-27T12:57:34;77211.94;;;-146.33
37414;BMP280;23279;46.472;30.760;2023-05-27T12:59:59;77201.75;;;-146.33
37414;BMP280;23279;46.472;30.760;2023-05-27T13:02:25;77189.53;;;-146.33
37414;BMP280;23279;46.472;30.760;2023-05-27T13:04:50;77173.28;;;-146.33
37414;BMP280;23279;46.472;30.760;2023-05-27T13:07:16;77177.34;;;-146.33
37414;BMP280;23279;46.472;30.760;2023-05-27T13:09:41;77122.41;;;-146.33
37414;BMP280;23279;46.472;30.760;2023-05-27T13:12:07;77104.09;;;-146.33
37414;BMP280;23279;46.472;30.760;2023-05-27T13:14:32;77073.59;;;-146.33
37414;BMP280;23279;46.472;30.760;2023-05-27T13:16:58;77061.38;;;-146.33
37414;BMP280;23279;46.472;30.760;2023-05-27T13:19:23;77043.06;;;-146.33
37414;BMP280;23279;46.472;30.760;2023-05-27T13:21:49;77030.88;;;-146.33
37414;BMP280;23279;46.472;30.760;2023-05-27T13:24:14;77030.88;;;-146.33
37414;BMP280;23279;46.472;30.760;2023-05-27T13:26:40;77018.66;;;-146.33